Time;durP1;ratioP1;P1;durP2;ratioP2;P2;SDS_P1;SDS_P2;PMS_P1;PMS_P2;Temp;Humidity;BMP_temperature;BMP_pressure;BME280_temperature;BME280_humidity;BME280_pressure;Samples;Min_cycle;Max_cycle;Signal;HPM_P1;HPM_P2
2022/03/08 05:01:04;;;;;;;3.53;3.28;;;-1.00;99.90;;;;;;5616341;23;20236;-64
2022/03/08 05:03:30;;;;;;;6.30;3.95;;;-1.00;99.90;;;;;;4946358;28;20213;-65
2022/03/08 05:05:57;;;;;;;3.80;3.58;;;-1.00;99.90;;;;;;4932651;29;20596;-66
2022/03/08 05:08:24;;;;;;;4.53;4.13;;;-1.00;99.90;;;;;;4945562;29;20209;-65
2022/03/08 05:10:50;;;;;;;4.18;3.90;;;-1.00;99.90;;;;;;4951240;28;20220;-66
2022/03/08 05:13:17;;;;;;;4.25;3.80;;;-1.00;99.90;;;;;;4916211;28;20591;-67
2022/03/08 05:15:47;;;;;;;4.80;4.38;;;-1.00;99.90;;;;;;4933606;29;20213;-66
2022/03/08 05:18:15;;;;;;;6.03;5.53;;;-1.00;99.90;;;;;;4919405;28;20225;-68
2022/03/08 05:20:41;;;;;;;4.97;4.53;;;-1.00;99.90;;;;;;4923660;29;20230;-67
2022/03/08 05:23:08;;;;;;;5.43;3.75;;;-1.00;99.90;;;;;;4921297;29;20277;-67
2022/03/08 05:25:35;;;;;;;4.13;3.80;;;-1.00;99.90;;;;;;4933053;29;20205;-67
2022/03/08 05:28:02;;;;;;;5.30;4.85;;;-1.00;99.90;;;;;;4941056;28;20214;-66
2022/03/08 05:30:28;;;;;;;5.32;4.97;;;-1.10;99.90;;;;;;4942137;28;20208;-66
2022/03/08 05:32:55;;;;;;;5.30;3.75;;;-1.10;99.90;;;;;;4941778;28;20225;-66
2022/03/08 05:35:23;;;;;;;5.18;4.68;;;-1.10;99.90;;;;;;4940600;29;20205;-67
2022/03/08 05:37:50;;;;;;;7.55;4.78;;;-1.10;99.90;;;;;;4943182;28;20256;-68
2022/03/08 05:40:17;;;;;;;4.78;4.47;;;-1.10;99.90;;;;;;4937601;29;20276;-66
2022/03/08 05:42:44;;;;;;;5.18;4.72;;;-1.10;99.90;;;;;;4926751;29;20226;-69
2022/03/08 05:45:12;;;;;;;4.78;4.38;;;-1.10;99.90;;;;;;4919699;29;20218;-66
2022/03/08 05:47:40;;;;;;;4.55;4.35;;;-1.10;99.90;;;;;;4927134;29;20202;-66
2022/03/08 05:50:09;;;;;;;5.18;4.78;;;-1.10;99.90;;;;;;4917239;29;20218;-66
2022/03/08 05:52:37;;;;;;;5.22;4.72;;;-1.10;99.90;;;;;;4937775;28;20217;-66
2022/03/08 05:55:06;;;;;;;5.65;4.53;;;-1.10;99.90;;;;;;4936111;29;20217;-65
2022/03/08 05:57:33;;;;;;;4.60;4.20;;;-1.10;99.90;;;;;;4940588;29;20231;-66
2022/03/08 06:00:00;;;;;;;4.03;3.70;;;-1.10;99.90;;;;;;4916418;29;20218;-66
2022/03/08 06:02:26;;;;;;;5.25;4.30;;;-1.10;99.90;;;;;;4945558;29;20237;-68
2022/03/08 06:04:53;;;;;;;4.60;4.20;;;-1.10;99.90;;;;;;4922676;29;20262;-67
2022/03/08 06:07:21;;;;;;;4.80;4.00;;;-1.10;99.90;;;;;;4929741;29;20301;-67
2022/03/08 06:09:49;;;;;;;6.47;5.03;;;-1.10;99.90;;;;;;4936272;29;20643;-66
2022/03/08 06:12:16;;;;;;;5.22;4.72;;;-1.00;99.90;;;;;;4939458;29;20230;-66
2022/03/08 06:14:43;;;;;;;4.85;4.45;;;-1.10;99.90;;;;;;4931165;29;20235;-68
2022/03/08 06:17:10;;;;;;;4.90;3.72;;;-1.00;99.90;;;;;;4929749;29;20233;-67
2022/03/08 06:19:37;;;;;;;5.85;5.28;;;-1.00;99.90;;;;;;4916080;29;20221;-66
2022/03/08 06:22:05;;;;;;;5.47;4.97;;;-1.00;99.90;;;;;;4923487;29;20223;-66
2022/03/08 06:24:32;;;;;;;5.22;4.70;;;-1.00;99.90;;;;;;4916873;29;20266;-67
2022/03/08 06:27:00;;;;;;;5.80;5.25;;;-0.90;99.90;;;;;;4922443;29;20199;-67
2022/03/08 06:29:27;;;;;;;6.70;5.53;;;-0.90;99.90;;;;;;4916389;29;20210;-66
2022/03/08 06:31:53;;;;;;;7.75;6.20;;;-0.90;99.90;;;;;;4922544;28;20377;-66
2022/03/08 06:34:20;;;;;;;8.65;5.28;;;-0.90;99.90;;;;;;4916743;29;20572;-66
2022/03/08 06:36:47;;;;;;;5.63;5.18;;;-0.80;99.90;;;;;;4930193;29;20316;-67
2022/03/08 06:39:14;;;;;;;5.68;5.10;;;-0.80;99.90;;;;;;4937239;28;20583;-66
2022/03/08 06:41:41;;;;;;;6.10;5.45;;;-0.70;99.90;;;;;;4927966;29;20233;-66
2022/03/08 06:44:09;;;;;;;7.72;5.30;;;-0.70;99.90;;;;;;4946728;29;20205;-65
2022/03/08 06:46:36;;;;;;;7.00;4.80;;;-0.60;99.90;;;;;;4944477;28;20273;-67
2022/03/08 06:49:03;;;;;;;5.15;4.65;;;-0.60;99.90;;;;;;4930922;29;20762;-67
2022/03/08 06:51:30;;;;;;;5.35;4.80;;;-0.60;99.90;;;;;;4924370;29;20246;-67
2022/03/08 06:53:57;;;;;;;5.93;5.32;;;-0.50;99.90;;;;;;4918088;29;20202;-66
2022/03/08 06:56:23;;;;;;;5.82;5.32;;;-0.50;99.90;;;;;;4925341;29;20227;-67
2022/03/08 06:58:50;;;;;;;5.05;4.65;;;-0.40;99.90;;;;;;4923509;29;20879;-66
2022/03/08 07:01:18;;;;;;;6.50;4.85;;;-0.30;99.90;;;;;;4933749;29;20674;-66
2022/03/08 07:03:45;;;;;;;5.32;4.82;;;-0.30;99.90;;;;;;4939422;29;20288;-67
2022/03/08 07:06:12;;;;;;;6.07;5.57;;;-0.20;99.90;;;;;;4938016;28;20230;-67
2022/03/08 07:08:38;;;;;;;7.90;7.20;;;-0.20;99.90;;;;;;4930860;29;20214;-67
2022/03/08 07:11:06;;;;;;;9.15;6.75;;;-0.10;99.90;;;;;;4932041;29;20706;-66
2022/03/08 07:13:33;;;;;;;6.05;5.40;;;0.00;99.90;;;;;;4928103;29;20218;-66
2022/03/08 07:16:00;;;;;;;6.10;5.50;;;0.00;99.90;;;;;;4925573;29;20213;-66
2022/03/08 07:18:28;;;;;;;6.72;4.90;;;0.10;99.90;;;;;;4941180;28;20277;-66
2022/03/08 07:20:54;;;;;;;4.65;4.25;;;0.10;99.90;;;;;;4942664;28;20566;-66
2022/03/08 07:23:22;;;;;;;5.70;5.13;;;0.20;99.90;;;;;;4941705;29;20744;-67
2022/03/08 07:25:48;;;;;;;6.80;4.80;;;0.20;99.90;;;;;;4937296;28;20246;-67
2022/03/08 07:28:15;;;;;;;5.18;4.88;;;0.30;99.90;;;;;;4929980;29;20234;-67
2022/03/08 07:30:42;;;;;;;5.47;5.05;;;0.30;99.90;;;;;;4928818;29;20238;-66
2022/03/08 07:33:08;;;;;;;6.32;4.50;;;0.40;99.90;;;;;;4933046;29;20211;-68
2022/03/08 07:35:37;;;;;;;5.22;4.80;;;0.40;99.90;;;;;;4929830;29;20250;-66
2022/03/08 07:38:03;;;;;;;4.70;4.40;;;0.50;99.90;;;;;;4936424;29;20221;-67
2022/03/08 07:40:30;;;;;;;8.57;5.13;;;0.50;99.90;;;;;;4938826;29;20581;-67
2022/03/08 07:42:57;;;;;;;5.22;4.82;;;0.60;99.90;;;;;;4942951;29;20217;-69
2022/03/08 07:45:24;;;;;;;4.93;4.43;;;0.60;99.90;;;;;;4944368;29;20213;-68
2022/03/08 07:47:50;;;;;;;6.45;5.78;;;0.70;99.90;;;;;;4950811;28;20268;-68
2022/03/08 07:50:17;;;;;;;5.68;4.90;;;0.80;99.90;;;;;;4937067;28;20794;-68
2022/03/08 07:52:45;;;;;;;5.20;4.72;;;0.80;99.90;;;;;;4950274;29;20555;-67
2022/03/08 07:55:12;;;;;;;6.00;5.50;;;0.90;99.90;;;;;;4950899;28;20216;-68
2022/03/08 07:57:38;;;;;;;5.43;5.00;;;1.00;99.90;;;;;;4948922;28;20225;-67
2022/03/08 08:00:07;;;;;;;5.22;4.82;;;1.10;99.90;;;;;;4940302;28;20209;-68
2022/03/08 08:02:33;;;;;;;5.53;5.03;;;1.20;99.90;;;;;;4945241;29;20295;-67
2022/03/08 08:05:00;;;;;;;4.53;4.15;;;1.30;99.90;;;;;;4940356;28;20290;-66
2022/03/08 08:07:27;;;;;;;4.85;4.47;;;1.40;99.90;;;;;;4943890;29;20591;-68
2022/03/08 08:09:55;;;;;;;4.72;4.35;;;1.50;99.90;;;;;;4945723;28;20214;-67
2022/03/08 08:12:21;;;;;;;5.22;4.78;;;1.60;99.90;;;;;;4936499;29;20221;-68
2022/03/08 08:14:48;;;;;;;4.88;4.57;;;1.70;99.90;;;;;;4931547;29;20294;-67
2022/03/08 08:17:16;;;;;;;4.50;4.20;;;1.80;99.90;;;;;;4940509;29;20714;-67
2022/03/08 08:19:42;;;;;;;6.45;4.72;;;1.90;99.90;;;;;;4932774;29;20213;-67
2022/03/08 08:22:09;;;;;;;4.13;3.72;;;2.10;99.90;;;;;;4935171;29;20281;-67
2022/03/08 08:24:36;;;;;;;5.97;4.22;;;2.20;99.90;;;;;;4935922;29;20210;-68
2022/03/08 08:27:05;;;;;;;3.80;3.53;;;2.30;99.90;;;;;;4935988;29;20216;-67
2022/03/08 08:29:32;;;;;;;4.30;4.00;;;2.40;99.90;;;;;;4935417;29;20313;-68
2022/03/08 08:31:59;;;;;;;4.63;4.32;;;2.50;99.90;;;;;;4935491;29;20683;-66
2022/03/08 08:34:25;;;;;;;8.07;4.35;;;2.60;99.90;;;;;;4935876;29;20567;-67
2022/03/08 08:36:52;;;;;;;4.63;4.32;;;2.70;99.90;;;;;;4935533;29;20281;-67
2022/03/08 08:39:19;;;;;;;4.13;3.75;;;2.80;99.90;;;;;;4936037;29;20554;-66
2022/03/08 08:41:46;;;;;;;4.50;4.20;;;2.80;99.90;;;;;;4935107;29;20218;-67
2022/03/08 08:44:14;;;;;;;4.70;4.30;;;3.00;99.90;;;;;;4936180;29;20312;-65
2022/03/08 08:46:41;;;;;;;3.72;3.45;;;3.10;99.90;;;;;;4936831;29;20213;-68
2022/03/08 08:49:07;;;;;;;4.22;3.92;;;3.20;99.90;;;;;;4935871;29;20277;-66
2022/03/08 08:51:35;;;;;;;4.05;3.55;;;3.30;99.90;;;;;;4932998;29;20242;-67
2022/03/08 08:54:01;;;;;;;4.40;4.10;;;3.50;99.90;;;;;;4935782;29;20237;-66
2022/03/08 08:56:28;;;;;;;7.05;5.40;;;3.70;99.90;;;;;;4934258;29;20209;-68
2022/03/08 08:58:55;;;;;;;5.75;5.07;;;3.80;99.90;;;;;;4935726;29;20710;-65
2022/03/08 09:01:23;;;;;;;7.63;6.70;;;3.90;99.90;;;;;;4933869;29;20230;-66
2022/03/08 09:03:50;;;;;;;7.80;7.10;;;4.00;99.90;;;;;;4934940;29;20229;-66
2022/03/08 09:06:16;;;;;;;7.28;6.57;;;4.20;99.90;;;;;;4935608;29;20214;-70
2022/03/08 09:08:43;;;;;;;11.25;10.13;;;4.20;99.90;;;;;;4934561;29;20231;-66
2022/03/08 09:11:11;;;;;;;10.35;7.53;;;4.30;99.90;;;;;;4934079;29;20248;-68
2022/03/08 09:13:38;;;;;;;6.32;5.78;;;4.40;99.90;;;;;;4935315;29;20202;-66
2022/03/08 09:16:06;;;;;;;5.35;4.95;;;4.40;99.90;;;;;;4934630;29;20261;-66
2022/03/08 09:18:34;;;;;;;8.88;7.32;;;4.50;99.90;;;;;;4931852;29;20236;-67
2022/03/08 09:21:01;;;;;;;6.30;5.05;;;4.60;99.90;;;;;;4932324;29;20298;-65
2022/03/08 09:23:27;;;;;;;10.50;9.50;;;4.70;99.90;;;;;;4931769;29;20225;-66
2022/03/08 09:25:54;;;;;;;8.20;7.40;;;4.80;99.90;;;;;;4932122;29;20214;-66
2022/03/08 09:28:21;;;;;;;9.63;8.73;;;4.90;99.90;;;;;;4932152;29;20206;-67
2022/03/08 09:30:48;;;;;;;8.35;6.05;;;5.00;99.90;;;;;;4926581;29;20293;-68
2022/03/08 09:33:15;;;;;;;13.57;8.20;;;5.00;99.90;;;;;;4931398;29;20206;-66
2022/03/08 09:35:43;;;;;;;5.32;4.53;;;5.10;99.90;;;;;;4931838;29;20210;-66
2022/03/08 09:38:11;;;;;;;4.28;3.58;;;5.30;99.90;;;;;;4931236;29;20225;-66
2022/03/08 09:40:38;;;;;;;4.75;4.45;;;5.50;99.90;;;;;;4930916;29;20238;-66
2022/03/08 09:43:05;;;;;;;7.75;7.05;;;5.50;99.90;;;;;;4931624;29;20232;-66
2022/03/08 09:45:32;;;;;;;3.95;3.55;;;5.50;99.90;;;;;;4930583;29;20222;-68
2022/03/08 09:47:59;;;;;;;6.00;5.40;;;5.60;99.90;;;;;;4931430;29;20278;-66
2022/03/08 09:50:26;;;;;;;5.47;4.95;;;5.70;99.90;;;;;;4931266;29;20758;-65
2022/03/08 09:52:56;;;;;;;4.32;3.95;;;5.80;99.90;;;;;;4931476;29;20206;-65
2022/03/08 09:55:25;;;;;;;7.20;3.50;;;5.80;99.90;;;;;;4932241;29;20206;-66
2022/03/08 09:57:52;;;;;;;4.07;3.72;;;6.00;99.90;;;;;;4931323;29;20327;-66
2022/03/08 10:00:21;;;;;;;3.45;3.22;;;6.10;99.90;;;;;;4930863;29;20213;-67
2022/03/08 10:02:50;;;;;;;3.28;3.00;;;6.20;99.90;;;;;;4930934;29;20759;-66
2022/03/08 10:05:21;;;;;;;5.35;3.75;;;6.30;99.90;;;;;;4931824;29;20214;-66
2022/03/08 10:08:13;;;;;;;2.25;2.22;;;6.40;99.90;;;;;;4933772;29;20221;-68
2022/03/08 10:10:49;;;;;;;3.40;3.08;;;6.60;99.90;;;;;;4935144;29;20261;-67
2022/03/08 10:13:16;;;;;;;5.22;4.93;;;6.60;99.90;;;;;;4916058;29;20217;-67
2022/03/08 10:15:43;;;;;;;17.98;10.00;;;6.70;99.90;;;;;;4916055;29;20719;-67
2022/03/08 10:18:10;;;;;;;5.60;5.18;;;6.70;99.90;;;;;;4917915;29;20265;-67
2022/03/08 10:20:37;;;;;;;6.45;3.03;;;6.70;99.90;;;;;;4931935;29;20706;-67
2022/03/08 10:23:13;;;;;;;2.30;2.20;;;6.90;99.90;;;;;;4934833;29;20309;-68
2022/03/08 10:25:42;;;;;;;3.90;3.60;;;6.90;99.90;;;;;;4935186;29;20232;-67
2022/03/08 10:28:09;;;;;;;3.58;3.38;;;6.90;99.90;;;;;;4934642;29;20649;-66
2022/03/08 10:30:51;;;;;;;4.68;3.55;;;7.00;99.90;;;;;;4934348;29;20266;-66
2022/03/08 10:33:20;;;;;;;1.77;1.70;;;7.00;99.90;;;;;;4934611;29;20230;-66
2022/03/08 10:35:50;;;;;;;1.70;1.60;;;7.20;99.90;;;;;;4934553;29;20237;-67
2022/03/08 10:38:18;;;;;;;1.20;1.20;;;7.40;99.90;;;;;;4933995;29;20225;-67
2022/03/08 10:40:45;;;;;;;3.28;1.90;;;7.40;99.90;;;;;;4934036;29;20702;-68
2022/03/08 10:43:14;;;;;;;2.75;2.55;;;7.50;99.90;;;;;;4934360;29;20214;-66
2022/03/08 10:45:44;;;;;;;2.15;2.05;;;7.40;99.90;;;;;;4934467;29;20670;-67
2022/03/08 10:48:13;;;;;;;2.00;1.90;;;7.50;99.90;;;;;;4933911;29;20230;-66
2022/03/08 10:50:40;;;;;;;1.50;1.40;;;7.60;99.90;;;;;;4930577;29;20548;-67
2022/03/08 10:53:08;;;;;;;1.92;1.80;;;7.70;99.90;;;;;;4933957;29;20214;-67
2022/03/08 10:55:38;;;;;;;1.88;1.77;;;7.70;99.90;;;;;;4934741;29;20665;-69
2022/03/08 10:58:06;;;;;;;2.05;1.95;;;7.90;99.90;;;;;;4932876;29;20245;-67
2022/03/08 11:00:38;;;;;;;1.85;1.75;;;7.90;99.90;;;;;;4923227;29;20289;-67
2022/03/08 11:03:07;;;;;;;1.38;1.33;;;7.90;99.90;;;;;;4915167;29;20638;-66
2022/03/08 11:05:36;;;;;;;2.45;1.52;;;8.00;99.90;;;;;;4915534;29;20309;-67
2022/03/08 11:08:04;;;;;;;1.38;1.30;;;8.10;99.90;;;;;;4914936;29;20207;-66
2022/03/08 11:10:31;;;;;;;1.40;1.40;;;8.20;99.90;;;;;;4933443;29;20261;-66
2022/03/08 11:13:00;;;;;;;1.10;1.10;;;8.20;99.90;;;;;;4934312;29;20210;-67
2022/03/08 11:15:28;;;;;;;1.95;1.85;;;8.30;99.90;;;;;;4934136;29;20213;-66
2022/03/08 11:17:56;;;;;;;4.00;1.35;;;8.30;99.90;;;;;;4932639;29;20276;-67
2022/03/08 11:20:26;;;;;;;1.25;1.15;;;8.30;99.90;;;;;;4933307;29;20276;-66
2022/03/08 11:22:55;;;;;;;1.60;1.50;;;8.40;99.90;;;;;;4933638;29;20217;-65
2022/03/08 11:25:23;;;;;;;1.42;1.33;;;8.50;99.90;;;;;;4934224;29;20594;-65
2022/03/08 11:27:50;;;;;;;1.70;1.63;;;8.50;99.90;;;;;;4933784;29;20210;-66
2022/03/08 11:30:21;;;;;;;1.60;1.60;;;8.60;99.90;;;;;;4933242;29;20610;-66
2022/03/08 11:32:59;;;;;;;2.45;2.10;;;8.60;99.90;;;;;;4933638;29;20301;-67
2022/03/08 11:35:30;;;;;;;2.17;1.75;;;8.70;99.90;;;;;;4934281;29;20213;-65
2022/03/08 11:37:57;;;;;;;1.00;1.00;;;8.70;99.90;;;;;;4933883;29;20238;-65
2022/03/08 11:40:24;;;;;;;2.15;2.05;;;8.80;99.90;;;;;;4933174;29;20221;-66
2022/03/08 11:42:53;;;;;;;1.48;1.40;;;8.70;99.90;;;;;;4934910;29;20331;-66
2022/03/08 11:45:24;;;;;;;1.92;1.83;;;8.70;99.90;;;;;;4934958;29;20625;-65
2022/03/08 11:47:55;;;;;;;1.70;1.70;;;8.80;99.90;;;;;;4936450;29;20205;-70
2022/03/08 11:50:25;;;;;;;2.28;1.23;;;8.90;99.90;;;;;;4937420;29;20289;-65
2022/03/08 11:53:04;;;;;;;1.75;1.65;;;9.00;99.90;;;;;;4936092;29;20214;-65
2022/03/08 11:55:31;;;;;;;1.65;1.60;;;9.00;99.90;;;;;;4934173;29;20769;-68
2022/03/08 11:58:00;;;;;;;1.60;1.60;;;9.00;99.90;;;;;;4933795;29;20229;-67
2022/03/08 12:00:34;;;;;;;1.10;1.10;;;9.10;99.90;;;;;;4932247;29;20214;-68
2022/03/08 12:03:06;;;;;;;1.40;1.35;;;9.10;99.20;;;;;;4933222;29;20220;-67
2022/03/08 12:06:00;;;;;;;2.53;1.60;;;9.20;99.50;;;;;;4933804;29;20739;-67
2022/03/08 12:09:07;;;;;;;1.17;1.17;;;9.20;99.40;;;;;;4932800;29;20213;-67
2022/03/08 12:11:43;;;;;;;1.00;1.00;;;9.20;99.90;;;;;;4932661;29;20315;-68
2022/03/08 12:14:16;;;;;;;1.70;1.60;;;9.20;99.90;;;;;;4933167;29;20240;-68
2022/03/08 12:16:47;;;;;;;1.23;1.10;;;9.30;99.90;;;;;;4932915;29;20219;-68
2022/03/08 12:19:21;;;;;;;0.90;0.90;;;9.30;99.90;;;;;;4929863;29;20245;-69
2022/03/08 12:21:55;;;;;;;1.80;1.70;;;9.30;99.90;;;;;;4931556;29;20225;-68
2022/03/08 12:24:22;;;;;;;1.98;1.88;;;9.40;99.60;;;;;;4932687;29;20300;-68
2022/03/08 12:26:58;;;;;;;1.75;1.65;;;9.50;99.90;;;;;;4932682;29;20312;-69
2022/03/08 12:29:28;;;;;;;1.42;1.42;;;9.50;99.90;;;;;;4931918;29;20208;-68
2022/03/08 12:32:26;;;;;;;3.22;2.92;;;9.50;99.90;;;;;;4931977;29;20240;-67
2022/03/08 12:34:56;;;;;;;5.30;4.90;;;9.50;99.90;;;;;;4932467;29;20256;-67
2022/03/08 12:37:24;;;;;;;1.27;1.27;;;9.50;99.90;;;;;;4930840;29;20221;-67
2022/03/08 12:39:54;;;;;;;1.83;1.83;;;9.50;99.90;;;;;;4931590;29;20230;-68
2022/03/08 12:42:24;;;;;;;1.98;1.90;;;9.50;99.90;;;;;;4932011;29;20229;-68
2022/03/08 12:44:53;;;;;;;3.88;2.03;;;9.60;99.90;;;;;;4932070;29;20237;-69
2022/03/08 12:47:21;;;;;;;1.88;1.77;;;9.60;99.90;;;;;;4932280;29;20206;-68
2022/03/08 12:49:48;;;;;;;2.28;2.13;;;9.60;99.90;;;;;;4931085;29;20210;-68
2022/03/08 12:52:18;;;;;;;1.98;1.98;;;9.50;99.90;;;;;;4929247;29;20593;-68
2022/03/08 12:54:45;;;;;;;3.08;2.90;;;9.50;99.90;;;;;;4932055;29;20202;-68
2022/03/08 12:57:14;;;;;;;2.13;1.95;;;9.60;99.90;;;;;;4932421;29;20617;-68
2022/03/08 12:59:49;;;;;;;2.10;2.00;;;9.70;99.90;;;;;;4931499;29;20253;-67
2022/03/08 13:02:17;;;;;;;3.15;1.70;;;9.70;99.90;;;;;;4931903;29;20346;-68
2022/03/08 13:04:46;;;;;;;2.20;2.10;;;9.70;99.90;;;;;;4926345;29;20261;-68
2022/03/08 13:07:14;;;;;;;1.85;1.77;;;9.70;99.90;;;;;;4919384;29;20210;-68
2022/03/08 13:09:52;;;;;;;1.30;1.30;;;9.80;99.90;;;;;;4913351;29;20316;-68
2022/03/08 13:12:19;;;;;;;2.05;1.90;;;9.90;99.90;;;;;;4922738;29;20225;-66
2022/03/08 13:15:11;;;;;;;1.77;1.73;;;9.90;99.90;;;;;;4931024;29;21851;-67
2022/03/08 13:17:39;;;;;;;2.22;1.65;;;9.80;99.90;;;;;;4931273;28;20225;-67
2022/03/08 13:20:24;;;;;;;1.05;1.05;;;9.80;99.90;;;;;;4925797;29;20300;-67
2022/03/08 13:22:50;;;;;;;1.92;1.75;;;9.90;99.90;;;;;;4924658;29;20232;-67
2022/03/08 13:25:18;;;;;;;1.65;1.55;;;9.90;99.90;;;;;;4935347;29;20626;-68
2022/03/08 13:28:01;;;;;;;1.00;1.00;;;9.90;99.90;;;;;;4928923;29;20342;-68
2022/03/08 13:30:30;;;;;;;0.88;0.88;;;10.00;99.50;;;;;;4918243;29;20683;-67
2022/03/08 13:33:11;;;;;;;1.13;1.00;;;10.00;99.10;;;;;;4933559;29;20205;-68
2022/03/08 13:35:40;;;;;;;1.33;0.65;;;9.90;99.20;;;;;;4932053;29;20205;-68
2022/03/08 13:38:09;;;;;;;0.70;0.70;;;9.90;98.80;;;;;;4925651;28;20229;-67
2022/03/08 13:40:36;;;;;;;0.90;0.90;;;9.90;99.30;;;;;;4924912;29;20309;-68
2022/03/08 13:43:04;;;;;;;0.93;0.93;;;10.00;98.60;;;;;;4942287;29;20208;-68
2022/03/08 13:45:31;;;;;;;1.05;1.02;;;10.00;98.80;;;;;;4935523;29;20213;-67
2022/03/08 13:47:59;;;;;;;1.20;1.20;;;10.00;98.60;;;;;;4939843;29;20213;-67
2022/03/08 13:50:27;;;;;;;0.95;0.95;;;10.00;98.30;;;;;;4934991;29;20301;-68
2022/03/08 13:52:58;;;;;;;1.35;1.35;;;10.00;98.80;;;;;;4932853;29;20203;-69
2022/03/08 13:55:29;;;;;;;0.82;0.70;;;10.00;98.30;;;;;;4925244;29;20210;-66
2022/03/08 13:57:57;;;;;;;2.67;0.93;;;10.10;98.20;;;;;;4916491;29;20731;-68
2022/03/08 14:00:28;;;;;;;1.40;1.30;;;10.00;98.50;;;;;;4929131;29;20344;-67
2022/03/08 14:02:56;;;;;;;0.77;0.77;;;10.00;98.50;;;;;;4915993;29;20218;-67
2022/03/08 14:05:23;;;;;;;1.45;1.20;;;10.00;98.70;;;;;;4931493;29;20580;-67
2022/03/08 14:07:59;;;;;;;1.10;1.10;;;10.00;98.70;;;;;;4934815;29;20209;-68
2022/03/08 14:10:26;;;;;;;0.80;0.80;;;10.10;98.60;;;;;;4939136;29;20249;-67
2022/03/08 14:12:53;;;;;;;1.58;1.58;;;10.00;98.40;;;;;;4935250;29;20214;-67
2022/03/08 14:15:22;;;;;;;1.35;1.10;;;10.00;98.80;;;;;;4939440;29;20210;-67
2022/03/08 14:18:05;;;;;;;1.45;1.40;;;10.00;98.80;;;;;;4934409;29;20225;-68
2022/03/08 14:20:37;;;;;;;1.20;1.10;;;10.00;98.90;;;;;;4931303;29;20638;-67
2022/03/08 14:23:08;;;;;;;1.15;1.15;;;10.00;99.10;;;;;;4934540;29;20754;-68
2022/03/08 14:25:35;;;;;;;1.20;1.15;;;9.90;99.60;;;;;;4931236;29;20237;-68
2022/03/08 14:28:02;;;;;;;3.95;1.50;;;9.90;99.60;;;;;;4929726;29;20221;-67
2022/03/08 14:30:29;;;;;;;1.40;1.35;;;9.90;99.90;;;;;;4933554;29;20257;-67
2022/03/08 14:33:04;;;;;;;1.88;1.75;;;9.90;99.90;;;;;;4933678;29;20198;-68
2022/03/08 14:35:31;;;;;;;1.42;1.42;;;9.90;99.90;;;;;;4933201;29;20644;-67
2022/03/08 14:38:05;;;;;;;1.70;1.63;;;10.00;99.90;;;;;;4932663;29;20277;-67
2022/03/08 14:40:37;;;;;;;1.13;1.13;;;10.10;99.80;;;;;;4923357;29;20233;-66
2022/03/08 14:43:06;;;;;;;0.95;0.95;;;10.10;99.30;;;;;;4916548;29;20206;-68
2022/03/08 14:45:34;;;;;;;1.38;1.30;;;10.00;99.10;;;;;;4931838;29;20216;-68
2022/03/08 14:48:00;;;;;;;1.13;1.13;;;10.00;99.60;;;;;;4931765;29;20253;-67
2022/03/08 14:50:27;;;;;;;1.30;1.30;;;10.00;99.60;;;;;;4922539;29;20796;-67
2022/03/08 14:52:54;;;;;;;3.25;1.13;;;10.00;98.70;;;;;;4932676;29;20206;-66
2022/03/08 14:55:25;;;;;;;1.17;1.17;;;9.90;99.50;;;;;;4934049;29;20210;-69
2022/03/08 14:57:54;;;;;;;1.17;1.05;;;9.90;99.60;;;;;;4933672;29;20261;-67
2022/03/08 15:00:21;;;;;;;1.25;1.25;;;9.90;99.70;;;;;;4925424;29;20253;-67
2022/03/08 15:02:48;;;;;;;1.40;1.30;;;9.90;99.90;;;;;;4933362;29;20214;-67
2022/03/08 15:05:15;;;;;;;1.40;1.40;;;9.90;99.90;;;;;;4933611;29;20206;-68
2022/03/08 15:07:43;;;;;;;1.80;1.77;;;9.90;99.90;;;;;;4932298;29;20246;-67
2022/03/08 15:10:11;;;;;;;1.65;1.17;;;9.90;99.90;;;;;;4931495;29;20269;-67
2022/03/08 15:12:39;;;;;;;1.67;1.42;;;9.90;99.90;;;;;;4933774;29;20265;-66
2022/03/08 15:15:07;;;;;;;0.80;0.80;;;9.90;99.90;;;;;;4933586;29;20253;-67
2022/03/08 15:17:33;;;;;;;1.20;1.20;;;9.90;99.80;;;;;;4933116;29;20691;-68
2022/03/08 15:20:01;;;;;;;3.50;1.08;;;9.90;99.60;;;;;;4932724;29;20225;-68
2022/03/08 15:22:27;;;;;;;1.30;1.30;;;9.80;99.50;;;;;;4933192;29;20245;-69
2022/03/08 15:24:54;;;;;;;1.33;1.33;;;9.90;99.50;;;;;;4933126;29;20210;-67
2022/03/08 15:27:21;;;;;;;1.08;1.08;;;9.90;99.70;;;;;;4933687;29;20214;-66
2022/03/08 15:29:49;;;;;;;1.23;1.05;;;9.90;99.90;;;;;;4927916;29;20282;-67
2022/03/08 15:32:15;;;;;;;1.10;1.10;;;9.80;99.80;;;;;;4930219;29;20281;-67
2022/03/08 15:34:42;;;;;;;1.25;1.25;;;9.80;99.90;;;;;;4928860;29;20861;-68
2022/03/08 15:37:09;;;;;;;1.40;1.40;;;9.70;99.90;;;;;;4928770;29;20678;-67
2022/03/08 15:39:35;;;;;;;3.05;1.60;;;9.70;99.90;;;;;;4929513;29;20329;-67
2022/03/08 15:42:02;;;;;;;1.55;1.35;;;9.70;99.90;;;;;;4928611;29;20233;-67
2022/03/08 15:44:29;;;;;;;1.40;1.27;;;9.70;99.90;;;;;;4932813;29;20357;-67
2022/03/08 15:46:57;;;;;;;1.73;1.63;;;9.70;99.90;;;;;;4932311;29;20210;-67
2022/03/08 15:49:23;;;;;;;1.05;0.95;;;9.70;99.90;;;;;;4932340;29;20698;-66
2022/03/08 15:51:50;;;;;;;1.50;1.50;;;9.70;99.90;;;;;;4931005;29;20231;-67
2022/03/08 15:54:17;;;;;;;1.60;1.60;;;9.70;99.90;;;;;;4938267;29;20269;-66
2022/03/08 15:56:44;;;;;;;2.55;1.92;;;9.70;99.90;;;;;;4939268;28;20213;-67
2022/03/08 15:59:11;;;;;;;1.15;1.15;;;9.60;99.90;;;;;;4944179;29;20248;-66
2022/03/08 16:01:37;;;;;;;1.55;1.45;;;9.50;99.90;;;;;;4930176;28;20235;-67
2022/03/08 16:04:06;;;;;;;1.10;1.10;;;9.50;99.90;;;;;;4934619;28;20221;-67
2022/03/08 16:06:33;;;;;;;1.45;1.35;;;9.50;99.90;;;;;;4930796;29;20214;-67
2022/03/08 16:09:01;;;;;;;1.30;1.30;;;9.40;99.90;;;;;;4931170;29;20218;-66
2022/03/08 16:11:28;;;;;;;1.48;1.35;;;9.40;99.90;;;;;;4940572;28;20241;-66
2022/03/08 16:13:54;;;;;;;3.83;1.70;;;9.40;99.90;;;;;;4932819;29;20209;-66
2022/03/08 16:16:22;;;;;;;1.70;1.60;;;9.30;99.90;;;;;;4930972;29;20229;-68
2022/03/08 16:18:49;;;;;;;1.70;1.60;;;9.30;99.90;;;;;;4932315;29;20572;-67
2022/03/08 16:21:17;;;;;;;1.60;1.50;;;9.20;99.90;;;;;;4930041;29;20229;-68
2022/03/08 16:23:44;;;;;;;1.70;1.70;;;9.20;99.90;;;;;;4931214;29;20292;-68
2022/03/08 16:26:11;;;;;;;2.00;1.90;;;9.20;99.90;;;;;;4931130;29;20242;-67
2022/03/08 16:28:37;;;;;;;1.70;1.60;;;9.10;99.90;;;;;;4935355;29;20795;-68
2022/03/08 16:31:04;;;;;;;1.88;1.50;;;9.00;99.90;;;;;;4932417;29;20280;-67
2022/03/08 16:33:31;;;;;;;1.75;1.65;;;9.00;99.90;;;;;;4930739;29;20289;-67
2022/03/08 16:35:59;;;;;;;1.70;1.60;;;8.90;99.90;;;;;;4932264;29;20281;-67
2022/03/08 16:38:27;;;;;;;2.53;2.33;;;8.90;99.90;;;;;;4931482;29;20871;-67
2022/03/08 16:40:54;;;;;;;1.60;1.50;;;8.90;99.90;;;;;;4930709;29;20225;-67
2022/03/08 16:43:21;;;;;;;2.17;2.08;;;8.80;99.90;;;;;;4931901;29;20209;-67
2022/03/08 16:45:48;;;;;;;1.40;1.40;;;8.80;99.90;;;;;;4931215;29;20291;-68
2022/03/08 16:48:14;;;;;;;1.92;1.77;;;8.80;99.90;;;;;;4930893;29;20301;-66
2022/03/08 16:50:41;;;;;;;1.30;1.30;;;8.70;99.90;;;;;;4931272;29;20588;-67
2022/03/08 16:53:09;;;;;;;2.28;2.05;;;8.60;99.90;;;;;;4937027;29;20209;-67
2022/03/08 16:55:37;;;;;;;2.15;2.05;;;8.50;99.90;;;;;;4944711;29;20292;-67
2022/03/08 16:58:04;;;;;;;2.72;2.42;;;8.50;99.90;;;;;;4945420;29;20213;-67
2022/03/08 17:00:30;;;;;;;2.47;2.28;;;8.40;99.90;;;;;;4935219;28;20568;-67
2022/03/08 17:02:58;;;;;;;2.42;2.25;;;8.30;99.90;;;;;;4940462;28;20819;-67
2022/03/08 17:05:25;;;;;;;2.55;2.45;;;8.30;99.90;;;;;;4931452;29;20225;-67
2022/03/08 17:07:53;;;;;;;4.43;4.13;;;8.20;99.90;;;;;;4938495;29;20202;-67
2022/03/08 17:10:20;;;;;;;3.90;3.60;;;8.00;99.90;;;;;;4930019;29;20206;-67
2022/03/08 17:12:48;;;;;;;4.95;3.08;;;8.00;99.90;;;;;;4934560;29;20233;-68
2022/03/08 17:15:15;;;;;;;2.60;2.45;;;7.90;99.90;;;;;;4944395;29;20205;-69
2022/03/08 17:17:42;;;;;;;2.40;2.28;;;7.80;99.90;;;;;;4930409;29;20347;-66
2022/03/08 17:20:10;;;;;;;2.70;2.60;;;7.80;99.90;;;;;;4930610;29;20292;-68
2022/03/08 17:22:37;;;;;;;4.55;3.10;;;7.70;99.90;;;;;;4931122;29;20309;-65
2022/03/08 17:25:05;;;;;;;3.05;2.85;;;7.70;99.90;;;;;;4930923;29;20640;-66
2022/03/08 17:27:31;;;;;;;4.43;2.92;;;7.60;99.90;;;;;;4931559;29;20690;-67
2022/03/08 17:29:59;;;;;;;2.72;2.60;;;7.50;99.90;;;;;;4931681;29;20214;-67
2022/03/08 17:32:26;;;;;;;3.20;3.00;;;7.50;99.90;;;;;;4931387;29;20230;-68
2022/03/08 17:34:53;;;;;;;2.72;2.53;;;7.40;99.90;;;;;;4931402;29;20261;-69
2022/03/08 17:37:20;;;;;;;2.85;2.55;;;7.40;99.90;;;;;;4930100;29;20233;-68
2022/03/08 17:39:47;;;;;;;2.60;2.40;;;7.30;99.90;;;;;;4929547;29;20321;-66
2022/03/08 17:42:13;;;;;;;3.13;2.92;;;7.20;99.90;;;;;;4931041;29;20359;-68
2022/03/08 17:44:41;;;;;;;3.33;3.00;;;7.10;99.90;;;;;;4919900;29;20245;-68
2022/03/08 17:47:09;;;;;;;3.03;2.83;;;7.10;99.90;;;;;;4931935;29;20675;-68
2022/03/08 17:49:36;;;;;;;2.85;2.75;;;7.00;99.90;;;;;;4930305;29;20292;-68
2022/03/08 17:52:05;;;;;;;3.45;3.25;;;6.90;99.90;;;;;;4922980;29;20221;-67
2022/03/08 17:54:32;;;;;;;3.08;2.88;;;6.80;99.90;;;;;;4931243;29;20553;-67
2022/03/08 17:56:58;;;;;;;2.75;2.55;;;6.70;99.90;;;;;;4925839;29;20207;-67
2022/03/08 17:59:25;;;;;;;4.70;3.42;;;6.60;99.90;;;;;;4918948;29;20270;-67
2022/03/08 18:01:52;;;;;;;3.53;3.08;;;6.50;99.90;;;;;;4928233;29;20289;-67